sensor_id;sensor_type;location;lat;lon;timestamp;pressure;altitude;pressure_sealevel;temperature;humidity
45621;BME280;31345;51.522;10.702;2024-02-21T00:01:54;99686.19;;;6.66;100.00
45621;BME280;31345;51.522;10.702;2024-02-21T00:04:22;99690.22;;;6.73;100.00
45621;BME280;31345;51.522;10.702;2024-02-21T00:06:51;99684.19;;;6.73;100.00
45621;BME280;31345;51.522;10.702;2024-02-21T00:09:24;99683.88;;;6.81;100.00
45621;BME280;31345;51.522;10.702;2024-02-21T00:11:51;99676.53;;;6.70;100.00
45621;BME280;31345;51.522;10.702;2024-02-21T00:14:24;99678.31;;;6.68;100.00
45621;BME280;31345;51.522;10.702;2024-02-21T00:16:52;99673.81;;;6.73;100.00
45621;BME280;31345;51.522;10.702;2024-02-21T00:19:19;99666.75;;;6.54;100.00
45621;BME280;31345;51.522;10.702;2024-02-21T00:21:47;99660.88;;;6.71;100.00
45621;BME280;31345;51.522;10.702;2024-02-21T00:24:16;99660.72;;;6.74;100.00
45621;BME280;31345;51.522;10.702;2024-02-21T00:26:49;99657.06;;;6.58;100.00
45621;BME280;31345;51.522;10.702;2024-02-21T00:29:17;99669.03;;;6.62;100.00
45621;BME280;31345;51.522;10.702;2024-02-21T00:31:44;99668.84;;;6.66;100.00
45621;BME280;31345;51.522;10.702;2024-02-21T00:34:12;99662.56;;;6.72;100.00
45621;BME280;31345;51.522;10.702;2024-02-21T00:36:40;99657.25;;;6.75;100.00
45621;BME280;31345;51.522;10.702;2024-02-21T00:39:12;99650.03;;;6.82;100.00
45621;BME280;31345;51.522;10.702;2024-02-21T00:41:41;99651.00;;;6.79;100.00
45621;BME280;31345;51.522;10.702;2024-02-21T00:44:14;99656.38;;;6.75;100.00
45621;BME280;31345;51.522;10.702;2024-02-21T00:46:42;99644.91;;;6.81;100.00
45621;BME280;31345;51.522;10.702;2024-02-21T00:49:09;99653.72;;;6.76;100.00
45621;BME280;31345;51.522;10.702;2024-02-21T00:51:37;99652.81;;;6.77;100.00
45621;BME280;31345;51.522;10.702;2024-02-21T00:54:10;99651.97;;;6.77;100.00
45621;BME280;31345;51.522;10.702;2024-02-21T00:56:44;99646.09;;;6.72;100.00
45621;BME280;31345;51.522;10.702;2024-02-21T00:59:11;99640.66;;;6.78;100.00
45621;BME280;31345;51.522;10.702;2024-02-21T01:01:44;99640.63;;;6.79;100.00
45621;BME280;31345;51.522;10.702;2024-02-21T01:04:12;99637.47;;;6.71;100.00
45621;BME280;31345;51.522;10.702;2024-02-21T01:06:39;99641.88;;;6.69;100.00
45621;BME280;31345;51.522;10.702;2024-02-21T01:09:15;99643.63;;;6.69;100.00
45621;BME280;31345;51.522;10.702;2024-02-21T01:11:44;99644.47;;;6.69;100.00
45621;BME280;31345;51.522;10.702;2024-02-21T01:14:12;99639.81;;;6.77;100.00
45621;BME280;31345;51.522;10.702;2024-02-21T01:16:39;99635.16;;;6.86;100.00
45621;BME280;31345;51.522;10.702;2024-02-21T01:19:07;99635.94;;;6.88;100.00
45621;BME280;31345;51.522;10.702;2024-02-21T01:21:35;99622.72;;;6.92;100.00
45621;BME280;31345;51.522;10.702;2024-02-21T01:24:03;99617.28;;;6.99;100.00
45621;BME280;31345;51.522;10.702;2024-02-21T01:26:30;99616.19;;;7.04;100.00
45621;BME280;31345;51.522;10.702;2024-02-21T01:29:04;99609.88;;;7.10;100.00
45621;BME280;31345;51.522;10.702;2024-02-21T01:31:32;99603.50;;;7.17;100.00
45621;BME280;31345;51.522;10.702;2024-02-21T01:34:00;99598.44;;;7.14;100.00
45621;BME280;31345;51.522;10.702;2024-02-21T01:36:32;99592.25;;;7.17;100.00
45621;BME280;31345;51.522;10.702;2024-02-21T01:39:05;99586.97;;;7.18;100.00
45621;BME280;31345;51.522;10.702;2024-02-21T01:41:38;99584.19;;;7.23;100.00
45621;BME280;31345;51.522;10.702;2024-02-21T01:44:07;99586.63;;;7.26;100.00
45621;BME280;31345;51.522;10.702;2024-02-21T01:46:39;99584.75;;;7.30;100.00
45621;BME280;31345;51.522;10.702;2024-02-21T01:49:13;99580.53;;;7.27;100.00
45621;BME280;31345;51.522;10.702;2024-02-21T01:51:46;99582.66;;;7.38;100.00
45621;BME280;31345;51.522;10.702;2024-02-21T01:54:18;99574.13;;;7.35;100.00
45621;BME280;31345;51.522;10.702;2024-02-21T01:56:47;99570.81;;;7.31;100.00
45621;BME280;31345;51.522;10.702;2024-02-21T01:59:16;99565.69;;;7.29;100.00
45621;BME280;31345;51.522;10.702;2024-02-21T02:01:50;99569.78;;;7.35;100.00
45621;BME280;31345;51.522;10.702;2024-02-21T02:04:24;99563.94;;;7.30;100.00
45621;BME280;31345;51.522;10.702;2024-02-21T02:06:54;99568.72;;;7.39;100.00
45621;BME280;31345;51.522;10.702;2024-02-21T02:09:27;99563.66;;;7.36;100.00
45621;BME280;31345;51.522;10.702;2024-02-21T02:12:00;99562.59;;;7.40;100.00
45621;BME280;31345;51.522;10.702;2024-02-21T02:14:34;99562.09;;;7.32;100.00
45621;BME280;31345;51.522;10.702;2024-02-21T02:17:02;99558.50;;;7.35;100.00
45621;BME280;31345;51.522;10.702;2024-02-21T02:19:30;99558.25;;;7.41;100.00
45621;BME280;31345;51.522;10.702;2024-02-21T02:22:14;99553.03;;;7.41;100.00
45621;BME280;31345;51.522;10.702;2024-02-21T02:24:52;99557.34;;;7.42;100.00
45621;BME280;31345;51.522;10.702;2024-02-21T02:27:19;99552.41;;;7.36;100.00
45621;BME280;31345;51.522;10.702;2024-02-21T02:29:54;99540.53;;;7.30;100.00
45621;BME280;31345;51.522;10.702;2024-02-21T02:32:26;99546.44;;;7.34;100.00
45621;BME280;31345;51.522;10.702;2024-02-21T02:34:59;99545.66;;;7.31;100.00
45621;BME280;31345;51.522;10.702;2024-02-21T02:37:32;99546.56;;;7.30;100.00
45621;BME280;31345;51.522;10.702;2024-02-21T02:40:01;99545.72;;;7.30;100.00
45621;BME280;31345;51.522;10.702;2024-02-21T02:42:29;99545.38;;;7.38;100.00
45621;BME280;31345;51.522;10.702;2024-02-21T02:45:01;99543.75;;;7.35;100.00
45621;BME280;31345;51.522;10.702;2024-02-21T02:47:34;99536.16;;;7.30;100.00
45621;BME280;31345;51.522;10.702;2024-02-21T02:50:08;99534.97;;;7.38;100.00
45621;BME280;31345;51.522;10.702;2024-02-21T02:52:41;99534.34;;;7.33;100.00
45621;BME280;31345;51.522;10.702;2024-02-21T02:55:15;99536.88;;;7.34;100.00
45621;BME280;31345;51.522;10.702;2024-02-21T02:57:48;99523.09;;;7.32;100.00
45621;BME280;31345;51.522;10.702;2024-02-21T03:00:16;99529.06;;;7.34;100.00
45621;BME280;31345;51.522;10.702;2024-02-21T03:02:49;99530.00;;;7.33;100.00
45621;BME280;31345;51.522;10.702;2024-02-21T03:05:18;99511.50;;;7.39;100.00
45621;BME280;31345;51.522;10.702;2024-02-21T03:07:51;99515.94;;;7.37;100.00
45621;BME280;31345;51.522;10.702;2024-02-21T03:10:25;99516.91;;;7.35;100.00
45621;BME280;31345;51.522;10.702;2024-02-21T03:12:57;99506.41;;;7.36;100.00
45621;BME280;31345;51.522;10.702;2024-02-21T03:15:25;99501.22;;;7.36;100.00
45621;BME280;31345;51.522;10.702;2024-02-21T03:17:58;99499.53;;;7.35;100.00
45621;BME280;31345;51.522;10.702;2024-02-21T03:20:30;99496.75;;;7.40;100.00
45621;BME280;31345;51.522;10.702;2024-02-21T03:23:03;99494.81;;;7.43;100.00
45621;BME280;31345;51.522;10.702;2024-02-21T03:25:37;99496.03;;;7.36;100.00
45621;BME280;31345;51.522;10.702;2024-02-21T03:28:10;99499.41;;;7.38;100.00
45621;BME280;31345;51.522;10.702;2024-02-21T03:30:38;99488.28;;;7.35;100.00
45621;BME280;31345;51.522;10.702;2024-02-21T03:33:11;99481.25;;;7.37;100.00
45621;BME280;31345;51.522;10.702;2024-02-21T03:35:39;99481.34;;;7.35;100.00
45621;BME280;31345;51.522;10.702;2024-02-21T03:38:06;99478.19;;;7.28;100.00
45621;BME280;31345;51.522;10.702;2024-02-21T03:40:40;99469.75;;;7.23;100.00
45621;BME280;31345;51.522;10.702;2024-02-21T03:43:08;99474.94;;;7.23;100.00
45621;BME280;31345;51.522;10.702;2024-02-21T03:45:41;99471.38;;;7.26;100.00
45621;BME280;31345;51.522;10.702;2024-02-21T03:48:13;99459.28;;;7.25;100.00
45621;BME280;31345;51.522;10.702;2024-02-21T03:50:46;99473.91;;;7.27;100.00
45621;BME280;31345;51.522;10.702;2024-02-21T03:53:19;99467.91;;;7.25;100.00
45621;BME280;31345;51.522;10.702;2024-02-21T03:55:48;99479.84;;;7.29;100.00
45621;BME280;31345;51.522;10.702;2024-02-21T03:58:20;99480.00;;;7.26;100.00
45621;BME280;31345;51.522;10.702;2024-02-21T04:00:53;99479.78;;;7.31;100.00
45621;BME280;31345;51.522;10.702;2024-02-21T04:03:26;99477.88;;;7.35;100.00
45621;BME280;31345;51.522;10.702;2024-02-21T04:05:58;99479.53;;;7.37;100.00
45621;BME280;31345;51.522;10.702;2024-02-21T04:08:26;99474.38;;;7.36;100.00
45621;BME280;31345;51.522;10.702;2024-02-21T04:10:56;99467.34;;;7.38;100.00
45621;BME280;31345;51.522;10.702;2024-02-21T04:13:28;99466.50;;;7.37;100.00
45621;BME280;31345;51.522;10.702;2024-02-21T04:15:56;99459.53;;;7.38;100.00
45621;BME280;31345;51.522;10.702;2024-02-21T04:18:29;99455.47;;;7.32;100.00
45621;BME280;31345;51.522;10.702;2024-02-21T04:20:56;99447.59;;;7.34;100.00
45621;BME280;31345;51.522;10.702;2024-02-21T04:23:24;99444.16;;;7.33;100.00
45621;BME280;31345;51.522;10.702;2024-02-21T04:25:58;99439.91;;;7.30;100.00
45621;BME280;31345;51.522;10.702;2024-02-21T04:28:26;99440.84;;;7.29;100.00
45621;BME280;31345;51.522;10.702;2024-02-21T04:30:58;99435.38;;;7.36;100.00
45621;BME280;31345;51.522;10.702;2024-02-21T04:33:31;99427.50;;;7.37;100.00
45621;BME280;31345;51.522;10.702;2024-02-21T04:36:04;99433.31;;;7.42;100.00
45621;BME280;31345;51.522;10.702;2024-02-21T04:38:37;99417.16;;;7.36;100.00
45621;BME280;31345;51.522;10.702;2024-02-21T04:41:11;99405.44;;;7.44;100.00
45621;BME280;31345;51.522;10.702;2024-02-21T04:43:46;99407.00;;;7.49;100.00
45621;BME280;31345;51.522;10.702;2024-02-21T04:46:14;99404.56;;;7.46;100.00
45621;BME280;31345;51.522;10.702;2024-02-21T04:48:42;99399.19;;;7.49;100.00
45621;BME280;31345;51.522;10.702;2024-02-21T04:51:11;99393.44;;;7.42;100.00
45621;BME280;31345;51.522;10.702;2024-02-21T04:53:44;99402.78;;;7.46;100.00
45621;BME280;31345;51.522;10.702;2024-02-21T04:56:13;99398.44;;;7.47;100.00
45621;BME280;31345;51.522;10.702;2024-02-21T04:58:40;99396.41;;;7.53;100.00
45621;BME280;31345;51.522;10.702;2024-02-21T05:01:13;99396.25;;;7.56;100.00
45621;BME280;31345;51.522;10.702;2024-02-21T05:03:46;99397.13;;;7.57;100.00
45621;BME280;31345;51.522;10.702;2024-02-21T05:06:13;99401.31;;;7.60;100.00
45621;BME280;31345;51.522;10.702;2024-02-21T05:08:47;99407.22;;;7.63;100.00
45621;BME280;31345;51.522;10.702;2024-02-21T05:11:21;99403.84;;;7.61;100.00
45621;BME280;31345;51.522;10.702;2024-02-21T05:13:54;99401.31;;;7.60;100.00
45621;BME280;31345;51.522;10.702;2024-02-21T05:16:22;99408.63;;;7.51;100.00
45621;BME280;31345;51.522;10.702;2024-02-21T05:18:54;99409.53;;;7.50;100.00
45621;BME280;31345;51.522;10.702;2024-02-21T05:21:28;99403.34;;;7.53;100.00
45621;BME280;31345;51.522;10.702;2024-02-21T05:24:01;99398.44;;;7.47;100.00
45621;BME280;31345;51.522;10.702;2024-02-21T05:26:30;99397.94;;;7.57;100.00
45621;BME280;31345;51.522;10.702;2024-02-21T05:28:58;99400.47;;;7.59;100.00
45621;BME280;31345;51.522;10.702;2024-02-21T05:31:54;99389.22;;;7.59;100.00
45621;BME280;31345;51.522;10.702;2024-02-21T05:34:22;99396.19;;;7.58;100.00
45621;BME280;31345;51.522;10.702;2024-02-21T05:36:50;99396.19;;;7.58;100.00
45621;BME280;31345;51.522;10.702;2024-02-21T05:39:18;99388.31;;;7.60;100.00
45621;BME280;31345;51.522;10.702;2024-02-21T05:41:52;99380.97;;;7.68;100.00
45621;BME280;31345;51.522;10.702;2024-02-21T05:44:20;99379.44;;;7.64;100.00
45621;BME280;31345;51.522;10.702;2024-02-21T05:46:53;99385.03;;;7.74;99.84
45621;BME280;31345;51.522;10.702;2024-02-21T05:49:21;99397.13;;;7.75;99.36
45621;BME280;31345;51.522;10.702;2024-02-21T05:51:49;99391.91;;;7.75;99.12
45621;BME280;31345;51.522;10.702;2024-02-21T05:54:22;99392.00;;;7.73;99.82
45621;BME280;31345;51.522;10.702;2024-02-21T05:56:51;99391.00;;;7.76;99.23
45621;BME280;31345;51.522;10.702;2024-02-21T05:59:19;99391.53;;;7.82;99.08
45621;BME280;31345;51.522;10.702;2024-02-21T06:01:55;99389.84;;;7.81;98.48
45621;BME280;31345;51.522;10.702;2024-02-21T06:04:28;99392.31;;;7.85;99.34
45621;BME280;31345;51.522;10.702;2024-02-21T06:06:56;99405.47;;;7.81;98.94
45621;BME280;31345;51.522;10.702;2024-02-21T06:09:24;99409.31;;;7.92;98.26
45621;BME280;31345;51.522;10.702;2024-02-21T06:11:53;99420.31;;;7.79;99.24
45621;BME280;31345;51.522;10.702;2024-02-21T06:14:20;99429.88;;;7.79;99.67
45621;BME280;31345;51.522;10.702;2024-02-21T06:16:53;99430.97;;;7.75;100.00
45621;BME280;31345;51.522;10.702;2024-02-21T06:19:21;99418.09;;;7.72;99.90
45621;BME280;31345;51.522;10.702;2024-02-21T06:21:48;99428.50;;;7.72;99.13
45621;BME280;31345;51.522;10.702;2024-02-21T06:24:21;99425.91;;;7.72;99.22
45621;BME280;31345;51.522;10.702;2024-02-21T06:26:49;99417.69;;;7.62;100.00
45621;BME280;31345;51.522;10.702;2024-02-21T06:29:23;99413.25;;;7.64;99.80
45621;BME280;31345;51.522;10.702;2024-02-21T06:31:50;99417.53;;;7.65;98.55
45621;BME280;31345;51.522;10.702;2024-02-21T06:34:23;99405.38;;;7.65;97.93
45621;BME280;31345;51.522;10.702;2024-02-21T06:36:56;99407.75;;;7.70;97.69
45621;BME280;31345;51.522;10.702;2024-02-21T06:39:24;99404.06;;;7.74;96.19
45621;BME280;31345;51.522;10.702;2024-02-21T06:41:51;99401.25;;;7.79;96.77
45621;BME280;31345;51.522;10.702;2024-02-21T06:44:26;99388.31;;;7.77;96.48
45621;BME280;31345;51.522;10.702;2024-02-21T06:46:54;99389.25;;;7.76;97.24
45621;BME280;31345;51.522;10.702;2024-02-21T06:49:27;99372.38;;;7.66;97.41
45621;BME280;31345;51.522;10.702;2024-02-21T06:52:00;99373.22;;;7.66;97.34
45621;BME280;31345;51.522;10.702;2024-02-21T06:54:27;99366.19;;;7.68;97.10
45621;BME280;31345;51.522;10.702;2024-02-21T06:57:00;99359.16;;;7.71;96.16
45621;BME280;31345;51.522;10.702;2024-02-21T06:59:29;99358.94;;;7.75;96.30
45621;BME280;31345;51.522;10.702;2024-02-21T07:02:02;99362.44;;;7.74;96.34
45621;BME280;31345;51.522;10.702;2024-02-21T07:04:35;99362.59;;;7.71;96.74
45621;BME280;31345;51.522;10.702;2024-02-21T07:07:03;99365.44;;;7.66;96.50
45621;BME280;31345;51.522;10.702;2024-02-21T07:09:36;99368.63;;;7.72;96.61
45621;BME280;31345;51.522;10.702;2024-02-21T07:12:08;99369.41;;;7.74;97.11
45621;BME280;31345;51.522;10.702;2024-02-21T07:14:44;99373.69;;;7.75;96.08
45621;BME280;31345;51.522;10.702;2024-02-21T07:17:12;99376.16;;;7.78;95.80
45621;BME280;31345;51.522;10.702;2024-02-21T07:19:45;99376.38;;;7.73;96.34
45621;BME280;31345;51.522;10.702;2024-02-21T07:22:12;99373.91;;;7.70;95.89
45621;BME280;31345;51.522;10.702;2024-02-21T07:24:40;99376.22;;;7.76;95.29
45621;BME280;31345;51.522;10.702;2024-02-21T07:27:14;99377.53;;;7.85;95.16
45621;BME280;31345;51.522;10.702;2024-02-21T07:29:43;99378.59;;;7.81;94.72
45621;BME280;31345;51.522;10.702;2024-02-21T07:32:18;99381.09;;;7.82;95.00
45621;BME280;31345;51.522;10.702;2024-02-21T07:34:46;99375.00;;;7.84;94.20
45621;BME280;31345;51.522;10.702;2024-02-21T07:37:19;99381.28;;;7.79;94.90
45621;BME280;31345;51.522;10.702;2024-02-21T07:39:46;99385.56;;;7.80;94.44
45621;BME280;31345;51.522;10.702;2024-02-21T07:42:19;99386.72;;;7.75;95.06
45621;BME280;31345;51.522;10.702;2024-02-21T07:44:48;99375.22;;;7.79;95.07
45621;BME280;31345;51.522;10.702;2024-02-21T07:47:16;99369.28;;;7.77;93.71
45621;BME280;31345;51.522;10.702;2024-02-21T07:49:50;99379.22;;;7.86;93.64
45621;BME280;31345;51.522;10.702;2024-02-21T07:52:22;99381.28;;;7.79;94.76
45621;BME280;31345;51.522;10.702;2024-02-21T07:54:56;99376.91;;;7.80;93.99
45621;BME280;31345;51.522;10.702;2024-02-21T07:57:23;99377.75;;;7.80;94.33
45621;BME280;31345;51.522;10.702;2024-02-21T07:59:52;99363.81;;;7.81;93.98
45621;BME280;31345;51.522;10.702;2024-02-21T08:02:20;99370.63;;;7.84;93.67
45621;BME280;31345;51.522;10.702;2024-02-21T08:04:48;99369.31;;;7.93;93.94
45621;BME280;31345;51.522;10.702;2024-02-21T08:07:20;99370.19;;;7.93;94.56
45621;BME280;31345;51.522;10.702;2024-02-21T08:09:48;99359.69;;;7.95;94.40
45621;BME280;31345;51.522;10.702;2024-02-21T08:12:21;99362.13;;;7.98;95.73
45621;BME280;31345;51.522;10.702;2024-02-21T08:14:48;99353.63;;;7.94;94.49
45621;BME280;31345;51.522;10.702;2024-02-21T08:17:17;99354.16;;;8.01;93.70
45621;BME280;31345;51.522;10.702;2024-02-21T08:19:45;99358.06;;;8.10;93.19
45621;BME280;31345;51.522;10.702;2024-02-21T08:22:17;99358.22;;;8.07;94.06
45621;BME280;31345;51.522;10.702;2024-02-21T08:24:51;99363.94;;;8.14;94.32
45621;BME280;31345;51.522;10.702;2024-02-21T08:27:19;99361.25;;;8.15;93.08
45621;BME280;31345;51.522;10.702;2024-02-21T08:29:51;99364.38;;;8.22;93.28
45621;BME280;31345;51.522;10.702;2024-02-21T08:32:25;99368.00;;;8.19;92.87
45621;BME280;31345;51.522;10.702;2024-02-21T08:34:58;99349.53;;;8.24;92.45
45621;BME280;31345;51.522;10.702;2024-02-21T08:37:27;99346.94;;;8.24;92.41
45621;BME280;31345;51.522;10.702;2024-02-21T08:39:54;99350.19;;;8.28;92.98
45621;BME280;31345;51.522;10.702;2024-02-21T08:42:22;99353.16;;;8.21;92.32
45621;BME280;31345;51.522;10.702;2024-02-21T08:44:55;99345.69;;;8.31;92.53
45621;BME280;31345;51.522;10.702;2024-02-21T08:47:29;99338.53;;;8.35;92.79
45621;BME280;31345;51.522;10.702;2024-02-21T08:50:01;99332.59;;;8.49;91.12
45621;BME280;31345;51.522;10.702;2024-02-21T08:52:37;99343.53;;;8.56;91.25
45621;BME280;31345;51.522;10.702;2024-02-21T08:55:05;99343.53;;;8.56;91.01
45621;BME280;31345;51.522;10.702;2024-02-21T08:57:38;99333.44;;;8.50;89.71
45621;BME280;31345;51.522;10.702;2024-02-21T09:00:12;99334.19;;;8.52;89.19
45621;BME280;31345;51.522;10.702;2024-02-21T09:02:41;99331.41;;;8.39;88.94
45621;BME280;31345;51.522;10.702;2024-02-21T09:05:15;99333.88;;;8.58;87.74
45621;BME280;31345;51.522;10.702;2024-02-21T09:07:47;99333.03;;;8.57;86.31
45621;BME280;31345;51.522;10.702;2024-02-21T09:10:20;99322.75;;;8.54;86.30
45621;BME280;31345;51.522;10.702;2024-02-21T09:12:48;99321.00;;;8.55;86.08
45621;BME280;31345;51.522;10.702;2024-02-21T09:15:21;99323.84;;;8.50;86.39
45621;BME280;31345;51.522;10.702;2024-02-21T09:17:56;99321.78;;;8.57;86.15
45621;BME280;31345;51.522;10.702;2024-02-21T09:20:24;99319.69;;;8.64;87.56
45621;BME280;31345;51.522;10.702;2024-02-21T09:22:52;99319.19;;;8.57;87.44
45621;BME280;31345;51.522;10.702;2024-02-21T09:25:20;99314.78;;;8.57;85.63
45621;BME280;31345;51.522;10.702;2024-02-21T09:27:53;99309.34;;;8.62;86.81
45621;BME280;31345;51.522;10.702;2024-02-21T09:30:21;99316.31;;;8.62;86.25
45621;BME280;31345;51.522;10.702;2024-02-21T09:32:49;99312.03;;;8.60;85.93
45621;BME280;31345;51.522;10.702;2024-02-21T09:35:23;99311.09;;;8.62;87.56
45621;BME280;31345;51.522;10.702;2024-02-21T09:37:53;99308.91;;;8.54;87.34
45621;BME280;31345;51.522;10.702;2024-02-21T09:40:21;99305.28;;;8.72;86.56
45621;BME280;31345;51.522;10.702;2024-02-21T09:43:00;99306.13;;;8.73;86.65
45621;BME280;31345;51.522;10.702;2024-02-21T09:45:35;99305.81;;;8.79;86.34
45621;BME280;31345;51.522;10.702;2024-02-21T09:48:33;99300.28;;;9.16;86.49
45621;BME280;31345;51.522;10.702;2024-02-21T09:51:14;99284.56;;;9.18;84.29
45621;BME280;31345;51.522;10.702;2024-02-21T09:53:48;99282.81;;;9.33;83.98
45621;BME280;31345;51.522;10.702;2024-02-21T09:56:16;99282.63;;;9.52;84.10
45621;BME280;31345;51.522;10.702;2024-02-21T09:58:44;99277.19;;;9.41;82.53
45621;BME280;31345;51.522;10.702;2024-02-21T10:01:16;99286.84;;;9.38;83.64
45621;BME280;31345;51.522;10.702;2024-02-21T10:03:44;99288.97;;;9.32;83.61
45621;BME280;31345;51.522;10.702;2024-02-21T10:06:13;99275.75;;;9.35;83.80
45621;BME280;31345;51.522;10.702;2024-02-21T10:08:52;99269.13;;;9.29;83.66
45621;BME280;31345;51.522;10.702;2024-02-21T10:11:22;99267.63;;;9.25;84.26
45621;BME280;31345;51.522;10.702;2024-02-21T10:14:03;99271.19;;;9.38;84.77
45621;BME280;31345;51.522;10.702;2024-02-21T10:16:36;99280.94;;;9.51;85.27
45621;BME280;31345;51.522;10.702;2024-02-21T10:19:16;99271.69;;;9.45;83.70
45621;BME280;31345;51.522;10.702;2024-02-21T10:22:03;99269.59;;;9.36;81.34
45621;BME280;31345;51.522;10.702;2024-02-21T10:24:37;99271.78;;;9.44;83.07
45621;BME280;31345;51.522;10.702;2024-02-21T10:27:12;99262.38;;;9.56;82.26
45621;BME280;31345;51.522;10.702;2024-02-21T10:29:40;99260.88;;;9.52;83.11
45621;BME280;31345;51.522;10.702;2024-02-21T10:32:14;99261.19;;;9.61;82.67
45621;BME280;31345;51.522;10.702;2024-02-21T10:34:47;99251.50;;;9.63;81.42
45621;BME280;31345;51.522;10.702;2024-02-21T10:37:24;99251.97;;;9.70;81.06
45621;BME280;31345;51.522;10.702;2024-02-21T10:39:53;99248.97;;;9.62;82.30
45621;BME280;31345;51.522;10.702;2024-02-21T10:42:29;99241.81;;;9.80;81.73
45621;BME280;31345;51.522;10.702;2024-02-21T10:45:00;99244.81;;;9.88;81.80
45621;BME280;31345;51.522;10.702;2024-02-21T10:47:37;99238.16;;;9.68;82.62
45621;BME280;31345;51.522;10.702;2024-02-21T10:50:07;99227.09;;;9.79;82.26
45621;BME280;31345;51.522;10.702;2024-02-21T10:52:49;99220.00;;;9.81;81.51
45621;BME280;31345;51.522;10.702;2024-02-21T10:55:32;99211.13;;;9.84;80.23
45621;BME280;31345;51.522;10.702;2024-02-21T10:58:03;99201.53;;;10.13;81.04
45621;BME280;31345;51.522;10.702;2024-02-21T11:00:32;99194.41;;;10.30;81.01
45621;BME280;31345;51.522;10.702;2024-02-21T11:03:06;99193.94;;;10.23;81.33
45621;BME280;31345;51.522;10.702;2024-02-21T11:05:34;99181.13;;;10.06;78.61
45621;BME280;31345;51.522;10.702;2024-02-21T11:08:08;99179.59;;;10.01;79.80
45621;BME280;31345;51.522;10.702;2024-02-21T11:10:45;99184.28;;;9.82;80.30
45621;BME280;31345;51.522;10.702;2024-02-21T11:13:13;99174.56;;;9.98;81.66
45621;BME280;31345;51.522;10.702;2024-02-21T11:15:41;99169.63;;;10.08;79.77
45621;BME280;31345;51.522;10.702;2024-02-21T11:18:23;99169.63;;;10.50;82.40
45621;BME280;31345;51.522;10.702;2024-02-21T11:20:55;99165.34;;;10.49;79.60
45621;BME280;31345;51.522;10.702;2024-02-21T11:23:27;99158.00;;;10.27;79.66
45621;BME280;31345;51.522;10.702;2024-02-21T11:26:04;99159.72;;;10.41;79.58
45621;BME280;31345;51.522;10.702;2024-02-21T11:28:37;99153.28;;;10.47;78.88
45621;BME280;31345;51.522;10.702;2024-02-21T11:31:12;99150.19;;;10.55;80.06
45621;BME280;31345;51.522;10.702;2024-02-21T11:33:41;99147.25;;;11.00;79.11
45621;BME280;31345;51.522;10.702;2024-02-21T11:36:10;99138.59;;;11.12;77.98
45621;BME280;31345;51.522;10.702;2024-02-21T11:38:39;99127.25;;;10.86;78.13
45621;BME280;31345;51.522;10.702;2024-02-21T11:41:12;99127.66;;;10.79;78.90
45621;BME280;31345;51.522;10.702;2024-02-21T11:43:44;99124.31;;;10.77;78.05
45621;BME280;31345;51.522;10.702;2024-02-21T11:46:13;99116.84;;;10.71;78.13
45621;BME280;31345;51.522;10.702;2024-02-21T11:48:41;99104.59;;;10.59;78.65
45621;BME280;31345;51.522;10.702;2024-02-21T11:51:21;99104.91;;;10.26;79.19
45621;BME280;31345;51.522;10.702;2024-02-21T11:53:55;99098.47;;;10.32;79.32
45621;BME280;31345;51.522;10.702;2024-02-21T11:56:29;99086.34;;;10.44;78.54
45621;BME280;31345;51.522;10.702;2024-02-21T11:58:58;99078.03;;;10.52;77.87
45621;BME280;31345;51.522;10.702;2024-02-21T12:01:31;99071.03;;;10.65;77.83
45621;BME280;31345;51.522;10.702;2024-02-21T12:03:59;99072.50;;;10.70;79.76
45621;BME280;31345;51.522;10.702;2024-02-21T12:06:26;99059.38;;;10.31;80.64
45621;BME280;31345;51.522;10.702;2024-02-21T12:08:57;99063.38;;;10.49;81.68
45621;BME280;31345;51.522;10.702;2024-02-21T12:11:25;99057.78;;;10.28;81.59
45621;BME280;31345;51.522;10.702;2024-02-21T12:13:59;99052.13;;;10.21;81.94
45621;BME280;31345;51.522;10.702;2024-02-21T12:16:30;99053.84;;;10.35;81.58
45621;BME280;31345;51.522;10.702;2024-02-21T12:19:03;99048.38;;;10.25;81.27
45621;BME280;31345;51.522;10.702;2024-02-21T12:21:36;99044.16;;;10.23;82.56
45621;BME280;31345;51.522;10.702;2024-02-21T12:24:14;99043.72;;;10.16;82.31
45621;BME280;31345;51.522;10.702;2024-02-21T12:26:42;99041.06;;;10.31;83.12
45621;BME280;31345;51.522;10.702;2024-02-21T12:29:09;99047.75;;;10.35;83.72
45621;BME280;31345;51.522;10.702;2024-02-21T12:31:37;99044.97;;;10.38;84.38
45621;BME280;31345;51.522;10.702;2024-02-21T12:34:10;99038.44;;;10.31;84.81
45621;BME280;31345;51.522;10.702;2024-02-21T12:36:44;99041.97;;;10.17;84.14
45621;BME280;31345;51.522;10.702;2024-02-21T12:39:15;99023.72;;;10.30;83.86
45621;BME280;31345;51.522;10.702;2024-02-21T12:41:44;99024.97;;;10.24;83.11
45621;BME280;31345;51.522;10.702;2024-02-21T12:44:11;99020.56;;;10.24;84.97
45621;BME280;31345;51.522;10.702;2024-02-21T12:46:39;99021.22;;;10.28;83.76
45621;BME280;31345;51.522;10.702;2024-02-21T12:49:07;99017.88;;;10.39;84.71
45621;BME280;31345;51.522;10.702;2024-02-21T12:51:40;99009.72;;;10.31;84.33
45621;BME280;31345;51.522;10.702;2024-02-21T12:54:08;99005.25;;;10.59;83.84
45621;BME280;31345;51.522;10.702;2024-02-21T12:56:43;99002.09;;;10.66;82.76
45621;BME280;31345;51.522;10.702;2024-02-21T12:59:11;98999.50;;;10.53;81.79
45621;BME280;31345;51.522;10.702;2024-02-21T13:01:40;99005.75;;;10.51;83.70
45621;BME280;31345;51.522;10.702;2024-02-21T13:04:07;98993.41;;;9.99;84.06
45621;BME280;31345;51.522;10.702;2024-02-21T13:06:40;98993.81;;;10.21;83.96
45621;BME280;31345;51.522;10.702;2024-02-21T13:09:13;98991.81;;;9.97;85.29
45621;BME280;31345;51.522;10.702;2024-02-21T13:11:47;98999.09;;;10.06;86.30
45621;BME280;31345;51.522;10.702;2024-02-21T13:14:22;98990.97;;;10.11;85.82
45621;BME280;31345;51.522;10.702;2024-02-21T13:16:50;98987.22;;;9.87;84.97